KJAU

Campbell County Airport

Jacksboro, Tennessee, USA
METAR KJAU 140435Z AUTO 04007KT 10SM OVC010 03/01 A3038 RMK A01
Observed Flight Rules
Nov-14 @ 04:35 UTC (15 minutes ago) Marginal Visual Flight Rules
Wind Visibility Clouds
40° at 7 knots 10 miles
  • Overcast at 1,000' AGL
Temperatures Readings
Current 3°C / 37°F
Dewpoint 1°C / 34°F
Humidity 87%
Altimeter 30.38" Hg
Pressure 1029 hPa
Elevation 360
METAR KJAU 140435Z AUTO 04007KT 10SM OVC010 03/01 A3038 RMK A01
Observed Flight Rules
Nov-14 @ 04:35 UTC
(15 minutes ago)
MVFR
Wind Visibility
40° at 7 knots 10 miles
Clouds
  • Overcast at 1,000' AGL
Temperature Dewpoint
3°C / 37°F 1°C / 34°F
Humidity Altimeter Pressure
87% 30.38" Hg 1029 hPa